Lovelock, NV (89419)

3:36 AM PDT on August 21, 2014 (GMT -0700)
Derby | Change Station
CLOSE
Current Station
Airport
Location: Lovelock,
Elevation: 3904 ft
Nearby Weather Stations
Active Advisory: Fire Weather Watch

Elev 3904 ft 40.07 °N, 118.57 °W | Updated 43 minutes ago

Clear
Clear
69 °F
Feels Like 69 °F
N
7
Wind Variable Wind from SE

Today
High -- | Low -- °F
--% Chance of Precip.
Yesterday
High -- | Low -- °F
Precip. -- in
6:11 AM 7:42 PM
Waning Crescent, 15% visible
Pressure 29.82 in
Visibility 10.0 miles
Clouds Clear
Dew Point 39 °F
Humidity 33%
Rainfall 0.00 in
Snow Depth Not available.
UV 0 out of 12
Pollen 7.70 out of 12
Air Quality Not available.
Flu Activity Not available.
METAR KLOL 210953Z AUTO 14006KT 10SM CLR 21/04 A2995 RMK AO2 SLP096 T02060039

More Conditions Fewer Conditions

Pressure 29.82 in
Visibility 10.0 miles
Clouds Clear
Dew Point 39 °F
Humidity 33%
Rainfall 0.00 in
Snow Depth Not available.
UV 0 out of 12
Pollen 7.70 out of 12
Air Quality Not available.
Flu Activity Not available.
METAR KLOL 210953Z AUTO 14006KT 10SM CLR 21/04 A2995 RMK AO2 SLP096 T02060039

More Conditions Fewer Conditions

10-Day Weather Forecast

Almanac

Astronomy

Aug. 21, 2014 Rise Set
Actual Time 6:11 AM PDT 7:42 PM PDT
Civil Twilight 5:42 AM PDT 8:10 PM PDT
Nautical Twilight 5:07 AM PDT 8:45 PM PDT
Astronomical Twilight 4:31 AM PDT 9:21 PM PDT
Moon 2:45 AM PDT 5:14 PM PDT
Length of Visible Light 14h 28m
Length of Day
13h 31m
Tomorrow will be 2m 25s shorter.
Waning Crescent, 15% of the Moon is Illuminated
Today
Waning Crescent
Aug 25
New
Sep 2
First Quarter
Sep 8
Full
Sep 15
Last Quarter

Today's Extremes

State Highs State Lows

Community

WunderPhotos

Upload Photos

1,745,871 photos uploaded!

Nearby

Snow Depth

Station Depth Elevation
Lewis Peak 0 in 7400 ft
Big Creek Summit 2 in 8700 ft
Mt. Rose Ski Area 0 in 8850 ft
Lamance Creek 1 in 6000 ft
Marlette Lake 0 in 8000 ft

Earthquake Activity

City Distance Mag. Time & Date
No recent earthquake activity has been reported nearby.
Minimum magnitude displayed is 2.5.

Coastal Water Temperatures

Place Temperature
No Stations Reporting

Nearby Weather Stations